createdAt,value
2019-03-05T00:02:08.184Z,5.90
2019-03-05T00:04:39.715Z,5.80
2019-03-05T00:07:11.860Z,5.80
2019-03-05T00:09:43.986Z,5.70
2019-03-05T00:12:15.847Z,5.80
2019-03-05T00:14:47.526Z,5.80
2019-03-05T00:17:18.516Z,5.80
2019-03-05T00:19:50.589Z,5.80
2019-03-05T00:22:21.593Z,5.70
2019-03-05T00:25:11.933Z,5.60
2019-03-05T00:28:12.654Z,5.60
2019-03-05T00:31:04.360Z,5.70
2019-03-05T00:34:23.239Z,5.70
2019-03-05T00:37:10.865Z,5.70
2019-03-05T00:40:27.916Z,5.80
2019-03-05T00:43:17.366Z,6.00
2019-03-05T00:46:19.420Z,6.20
2019-03-05T00:49:12.720Z,6.30
2019-03-05T00:52:24.364Z,6.40
2019-03-05T00:55:52.397Z,6.50
2019-03-05T00:59:25.016Z,6.50
2019-03-05T01:02:16.896Z,6.60
2019-03-05T01:05:52.282Z,6.60
2019-03-05T01:08:24.529Z,6.60
2019-03-05T01:10:56.460Z,6.50
2019-03-05T01:13:27.621Z,6.60
2019-03-05T01:15:58.849Z,6.60
2019-03-05T01:18:31.141Z,6.50
2019-03-05T01:21:02.925Z,6.60
2019-03-05T01:23:35.620Z,6.60
2019-03-05T01:26:07.773Z,6.60
2019-03-05T01:28:39.057Z,6.50
2019-03-05T01:31:41.672Z,6.40
2019-03-05T01:34:23.972Z,6.40
2019-03-05T01:36:58.682Z,6.30
2019-03-05T01:39:35.255Z,6.20
2019-03-05T01:42:07.429Z,6.20
2019-03-05T01:44:39.855Z,6.20
2019-03-05T01:47:11.115Z,6.20
2019-03-05T01:49:42.779Z,6.10
2019-03-05T01:52:14.015Z,6.20
2019-03-05T01:54:45.297Z,6.20
2019-03-05T01:57:16.541Z,6.20
2019-03-05T01:59:48.281Z,6.20
2019-03-05T02:02:20.215Z,6.20
2019-03-05T02:04:51.528Z,6.20
2019-03-05T02:07:23.521Z,6.20
2019-03-05T02:09:55.230Z,6.10
2019-03-05T02:12:26.961Z,6.10
2019-03-05T02:14:58.741Z,6.10
2019-03-05T02:17:29.728Z,6.00
2019-03-05T02:20:01.237Z,6.00
2019-03-05T02:22:58.662Z,6.00
2019-03-05T02:26:32.216Z,5.90
2019-03-05T02:30:18.251Z,5.80
2019-03-05T02:33:23.828Z,5.70
2019-03-05T02:36:52.905Z,5.60
2019-03-05T02:39:55.642Z,5.60
2019-03-05T02:43:30.844Z,5.70
2019-03-05T02:46:52.885Z,5.70
2019-03-05T02:49:59.137Z,5.70
2019-03-05T02:53:20.904Z,5.70
2019-03-05T02:56:25.728Z,5.70
2019-03-05T02:58:55.238Z,5.70
2019-03-05T03:01:52.170Z,5.80
2019-03-05T03:04:26.723Z,5.80
2019-03-05T03:06:58.237Z,5.80
2019-03-05T03:10:12.826Z,5.80
2019-03-05T03:12:45.151Z,5.80
2019-03-05T03:15:18.344Z,5.90
2019-03-05T03:17:50.911Z,5.90
2019-03-05T03:20:23.535Z,5.90
2019-03-05T03:22:55.193Z,5.90
2019-03-05T03:25:26.843Z,5.90
2019-03-05T03:27:58.598Z,5.90
2019-03-05T03:30:30.799Z,5.90
2019-03-05T03:33:02.423Z,5.90
2019-03-05T03:35:34.068Z,5.90
2019-03-05T03:38:05.384Z,6.00
2019-03-05T03:40:36.983Z,5.90
2019-03-05T03:43:08.281Z,5.90
2019-03-05T03:45:40.167Z,5.90
2019-03-05T03:48:11.717Z,6.00
2019-03-05T03:50:43.738Z,6.00
2019-03-05T03:53:15.437Z,5.90
2019-03-05T03:55:47.179Z,5.90
2019-03-05T03:58:18.514Z,5.90
2019-03-05T04:00:49.998Z,5.90
2019-03-05T04:03:21.656Z,5.90
2019-03-05T04:05:53.722Z,5.90
2019-03-05T04:08:25.179Z,5.80
2019-03-05T04:10:56.828Z,5.80
2019-03-05T04:13:28.692Z,5.70
2019-03-05T04:16:00.655Z,5.70
2019-03-05T04:18:32.766Z,5.70
2019-03-05T04:21:04.883Z,5.70
2019-03-05T04:23:36.535Z,5.60
2019-03-05T04:26:08.386Z,5.60
2019-03-05T04:28:40.301Z,5.50
2019-03-05T04:31:11.611Z,5.40
2019-03-05T04:33:43.258Z,5.40
2019-03-05T04:36:14.271Z,5.40
2019-03-05T04:38:45.624Z,5.40
2019-03-05T04:41:18.050Z,5.40
2019-03-05T04:43:49.035Z,5.30
2019-03-05T04:46:37.450Z,5.30
2019-03-05T04:49:26.758Z,5.30
2019-03-05T04:52:03.763Z,5.30
2019-03-05T04:54:34.762Z,5.30
2019-03-05T04:57:06.825Z,5.30
2019-03-05T04:59:38.299Z,5.30
2019-03-05T05:02:10.249Z,5.30
2019-03-05T05:04:42.043Z,5.20
2019-03-05T05:07:13.343Z,5.30
2019-03-05T05:09:45.172Z,5.20
2019-03-05T05:12:17.108Z,5.30
2019-03-05T05:14:48.754Z,5.30
2019-03-05T05:17:20.387Z,5.30
2019-03-05T05:19:52.027Z,5.30
2019-03-05T05:22:23.892Z,5.30
2019-03-05T05:24:55.160Z,5.40
2019-03-05T05:27:26.715Z,5.40
2019-03-05T05:29:58.852Z,5.40
2019-03-05T05:32:30.129Z,5.30
2019-03-05T05:35:01.446Z,5.30
2019-03-05T05:37:33.034Z,5.30
2019-03-05T05:40:33.168Z,5.30
2019-03-05T05:43:06.043Z,5.20
2019-03-05T05:45:42.248Z,5.30
2019-03-05T05:48:14.535Z,5.30
2019-03-05T05:50:46.272Z,5.20
2019-03-05T05:53:18.093Z,5.20
2019-03-05T05:55:49.411Z,5.10
2019-03-05T05:58:20.795Z,5.10
2019-03-05T06:00:54.560Z,5.10
2019-03-05T06:03:25.935Z,5.10
2019-03-05T06:05:57.794Z,5.20
2019-03-05T06:08:29.437Z,5.10
2019-03-05T06:11:01.184Z,5.20
2019-03-05T06:13:33.373Z,5.20
2019-03-05T06:16:05.200Z,5.20
2019-03-05T06:18:37.465Z,5.20
2019-03-05T06:21:09.026Z,5.10
2019-03-05T06:23:40.860Z,4.90
2019-03-05T06:26:12.876Z,4.80
2019-03-05T06:28:44.400Z,4.70
2019-03-05T06:31:15.364Z,4.60
2019-03-05T06:33:46.729Z,4.50
2019-03-05T06:36:18.630Z,4.40
2019-03-05T06:38:50.499Z,4.40
2019-03-05T06:41:22.679Z,4.40
2019-03-05T06:43:54.231Z,4.40
2019-03-05T06:46:25.994Z,4.60
2019-03-05T06:48:57.827Z,4.60
2019-03-05T06:51:29.489Z,4.80
2019-03-05T06:54:01.270Z,5.10
2019-03-05T06:56:33.116Z,5.30
2019-03-05T06:59:04.779Z,5.50
2019-03-05T07:01:36.028Z,5.90
2019-03-05T07:04:07.710Z,6.20
2019-03-05T07:06:56.915Z,6.50
2019-03-05T07:09:40.086Z,6.80
2019-03-05T07:12:52.356Z,6.90
2019-03-05T07:15:56.932Z,7.10
2019-03-05T07:18:40.525Z,7.20
2019-03-05T07:22:05.963Z,7.00
2019-03-05T07:24:51.602Z,6.90
2019-03-05T07:27:55.459Z,7.10
2019-03-05T07:30:28.402Z,7.30
2019-03-05T07:33:01.071Z,7.30
2019-03-05T07:35:34.340Z,7.30
2019-03-05T07:38:06.558Z,7.50
2019-03-05T07:40:37.587Z,7.60
2019-03-05T07:43:09.883Z,7.60
2019-03-05T07:45:41.589Z,7.50
2019-03-05T07:48:13.286Z,7.40
2019-03-05T07:50:44.627Z,7.50
2019-03-05T07:53:15.990Z,7.80
2019-03-05T07:55:47.017Z,8.10
2019-03-05T07:58:18.692Z,8.60
2019-03-05T08:00:51.703Z,9.00
2019-03-05T08:03:23.524Z,9.20
2019-03-05T08:05:55.292Z,9.20
2019-03-05T08:09:21.189Z,9.10
2019-03-05T08:11:53.310Z,8.80
2019-03-05T08:15:31.589Z,8.50
2019-03-05T08:18:02.915Z,8.30
2019-03-05T08:20:34.710Z,8.00
2019-03-05T08:23:06.977Z,7.80
2019-03-05T08:25:38.365Z,7.70
2019-03-05T08:28:10.173Z,8.00
2019-03-05T08:30:41.961Z,8.40
2019-03-05T08:33:13.711Z,8.80
2019-03-05T08:35:45.431Z,9.50
2019-03-05T08:38:16.690Z,9.80
2019-03-05T08:40:48.322Z,9.60
2019-03-05T08:43:19.982Z,9.40
2019-03-05T08:45:51.773Z,9.10
2019-03-05T08:48:24.005Z,8.70
2019-03-05T08:50:56.533Z,8.40
2019-03-05T08:53:27.887Z,8.00
2019-03-05T08:56:00.008Z,7.90
2019-03-05T08:58:31.518Z,7.50
2019-03-05T09:01:03.205Z,7.50
2019-03-05T09:03:35.150Z,7.70
2019-03-05T09:06:07.371Z,8.00
2019-03-05T09:08:39.890Z,8.10
2019-03-05T09:11:11.333Z,8.10
2019-03-05T09:13:43.268Z,8.20
2019-03-05T09:16:14.807Z,8.20
2019-03-05T09:18:46.536Z,8.20
2019-03-05T09:21:18.418Z,8.30
2019-03-05T09:24:18.091Z,8.40
2019-03-05T09:26:51.429Z,8.70
2019-03-05T09:29:23.275Z,8.80
2019-03-05T09:31:55.370Z,8.80
2019-03-05T09:34:26.397Z,8.70
2019-03-05T09:36:57.743Z,8.80
2019-03-05T09:39:29.143Z,8.90
2019-03-05T09:42:01.042Z,8.90
2019-03-05T09:44:33.120Z,9.00
2019-03-05T09:47:04.737Z,9.20
2019-03-05T09:49:36.354Z,9.20
2019-03-05T09:52:07.638Z,9.00
2019-03-05T09:54:39.836Z,8.60
2019-03-05T09:57:10.844Z,8.50
2019-03-05T09:59:42.066Z,8.20
2019-03-05T10:02:14.469Z,8.10
2019-03-05T10:04:45.785Z,8.20
2019-03-05T10:07:19.258Z,8.40
2019-03-05T10:09:51.219Z,8.50
2019-03-05T10:12:23.163Z,8.80
2019-03-05T10:14:55.112Z,9.00
2019-03-05T10:17:37.464Z,9.00
2019-03-05T10:19:59.702Z,9.00
2019-03-05T10:22:31.046Z,9.00
2019-03-05T10:25:05.936Z,9.10
2019-03-05T10:27:36.456Z,9.40
2019-03-05T10:30:24.763Z,9.70
2019-03-05T10:32:51.665Z,9.90
2019-03-05T10:35:25.557Z,9.90
2019-03-05T10:37:59.096Z,9.80
2019-03-05T10:40:33.827Z,9.80
2019-03-05T10:43:08.879Z,9.80
2019-03-05T10:45:44.483Z,9.80
2019-03-05T10:48:18.245Z,10.10
2019-03-05T10:50:52.126Z,10.40
2019-03-05T10:53:23.733Z,10.50
2019-03-05T10:55:55.547Z,10.80
2019-03-05T10:58:33.909Z,11.00
2019-03-05T11:01:01.022Z,11.30
2019-03-05T11:03:33.518Z,11.30
2019-03-05T11:06:07.403Z,11.30
2019-03-05T11:08:39.645Z,11.40
2019-03-05T11:11:13.862Z,11.50
2019-03-05T11:13:44.998Z,11.40
2019-03-05T11:16:16.368Z,11.50
2019-03-05T11:18:50.126Z,11.30
2019-03-05T11:21:21.759Z,11.40
2019-03-05T11:23:53.537Z,11.50
2019-03-05T11:26:25.278Z,11.50
2019-03-05T11:28:57.060Z,11.10
2019-03-05T11:31:29.800Z,11.00
2019-03-05T11:34:01.461Z,10.80
2019-03-05T11:36:33.549Z,10.70
2019-03-05T11:39:05.669Z,10.40
2019-03-05T11:41:38.745Z,10.30
2019-03-05T11:44:10.230Z,10.10
2019-03-05T11:46:42.214Z,9.80
2019-03-05T11:49:13.648Z,9.50
2019-03-05T11:51:45.669Z,9.30
2019-03-05T11:54:16.956Z,9.10
2019-03-05T11:56:48.635Z,9.10
2019-03-05T11:59:20.278Z,9.00
2019-03-05T12:01:52.797Z,9.10
2019-03-05T12:04:24.066Z,9.20
2019-03-05T12:06:55.400Z,9.10
2019-03-05T12:09:26.763Z,9.00
2019-03-05T12:11:58.394Z,8.90
2019-03-05T12:14:30.061Z,8.80
2019-03-05T12:17:01.442Z,8.80
2019-03-05T12:19:33.063Z,8.80
2019-03-05T12:22:05.268Z,8.70
2019-03-05T12:24:37.303Z,8.60
2019-03-05T12:27:09.220Z,8.50
2019-03-05T12:29:40.844Z,8.40
2019-03-05T12:32:12.362Z,8.40
2019-03-05T12:34:44.558Z,8.50
2019-03-05T12:37:16.110Z,8.50
2019-03-05T12:39:48.073Z,8.60
2019-03-05T12:42:20.510Z,8.50
2019-03-05T12:44:52.594Z,8.60
2019-03-05T12:47:24.817Z,8.60
2019-03-05T12:49:56.358Z,8.60
2019-03-05T12:52:27.972Z,8.60
2019-03-05T12:54:59.335Z,8.60
2019-03-05T12:57:30.955Z,8.50
2019-03-05T13:00:02.626Z,8.50
2019-03-05T13:02:35.688Z,8.50
2019-03-05T13:05:11.750Z,8.50
2019-03-05T13:07:43.935Z,8.60
2019-03-05T13:10:18.741Z,8.60
2019-03-05T13:12:50.743Z,8.60
2019-03-05T13:15:25.320Z,8.60
2019-03-05T13:17:56.717Z,8.70
2019-03-05T13:20:28.460Z,8.80
2019-03-05T13:23:08.734Z,8.90
2019-03-05T13:25:35.033Z,9.00
2019-03-05T13:28:06.722Z,9.00
2019-03-05T13:30:40.348Z,9.00
2019-03-05T13:33:12.129Z,8.90
2019-03-05T13:35:43.850Z,9.00
2019-03-05T13:38:15.014Z,9.10
2019-03-05T13:40:46.765Z,9.10
2019-03-05T13:43:18.587Z,9.10
2019-03-05T13:45:50.401Z,9.10
2019-03-05T13:49:18.292Z,9.10
2019-03-05T13:52:36.102Z,9.10
2019-03-05T13:55:49.608Z,9.00
2019-03-05T13:59:11.939Z,9.00
2019-03-05T14:01:43.991Z,8.90
2019-03-05T14:04:26.679Z,8.60
2019-03-05T14:07:46.892Z,8.50
2019-03-05T14:10:19.061Z,8.50
2019-03-05T14:12:50.795Z,8.40
2019-03-05T14:15:22.594Z,8.30
2019-03-05T14:17:54.561Z,8.20
2019-03-05T14:20:31.806Z,8.20
2019-03-05T14:23:00.421Z,8.10
2019-03-05T14:25:32.650Z,8.10
2019-03-05T14:28:04.014Z,8.10
2019-03-05T14:30:35.780Z,8.10
2019-03-05T14:33:07.417Z,8.20
2019-03-05T14:35:38.898Z,8.10
2019-03-05T14:38:10.685Z,8.10
2019-03-05T14:40:41.880Z,8.00
2019-03-05T14:43:13.867Z,8.00
2019-03-05T14:45:46.182Z,7.90
2019-03-05T14:48:17.592Z,7.90
2019-03-05T14:50:48.747Z,7.90
2019-03-05T14:53:20.528Z,7.90
2019-03-05T14:55:54.489Z,7.90
2019-03-05T14:58:25.462Z,7.90
2019-03-05T15:00:56.988Z,8.00
2019-03-05T15:03:29.056Z,8.10
2019-03-05T15:06:00.093Z,8.20
2019-03-05T15:08:31.923Z,8.40
2019-03-05T15:11:04.039Z,8.40
2019-03-05T15:13:36.235Z,8.50
2019-03-05T15:16:07.963Z,8.50
2019-03-05T15:18:40.092Z,8.50
2019-03-05T15:21:11.545Z,8.50
2019-03-05T15:23:43.169Z,8.50
2019-03-05T15:26:14.770Z,8.50
2019-03-05T15:28:55.683Z,8.50
2019-03-05T15:31:19.903Z,8.50
2019-03-05T15:33:51.393Z,8.40
2019-03-05T15:36:24.183Z,8.30
2019-03-05T15:38:55.637Z,8.20
2019-03-05T15:41:28.252Z,8.10
2019-03-05T15:44:00.331Z,8.00
2019-03-05T15:46:31.963Z,7.80
2019-03-05T15:49:03.704Z,7.80
2019-03-05T15:51:34.953Z,7.70
2019-03-05T15:54:06.638Z,7.60
2019-03-05T15:56:38.202Z,7.60
2019-03-05T15:59:09.535Z,7.50
2019-03-05T16:01:41.192Z,7.40
2019-03-05T16:04:12.747Z,7.50
2019-03-05T16:06:44.510Z,7.40
2019-03-05T16:09:18.978Z,7.40
2019-03-05T16:12:10.718Z,7.40
2019-03-05T16:14:42.094Z,7.30
2019-03-05T16:17:14.278Z,7.30
2019-03-05T16:19:49.004Z,7.30
2019-03-05T16:22:20.143Z,7.30
2019-03-05T16:24:51.486Z,7.20
2019-03-05T16:27:22.993Z,7.20
2019-03-05T16:29:55.781Z,7.10
2019-03-05T16:32:34.134Z,7.10
2019-03-05T16:35:40.254Z,7.10
2019-03-05T16:38:20.163Z,7.00
2019-03-05T16:41:10.956Z,6.90
2019-03-05T16:44:00.215Z,7.00
2019-03-05T16:46:41.308Z,7.00
2019-03-05T16:49:42.234Z,6.90
2019-03-05T16:52:33.748Z,6.90
2019-03-05T16:55:36.351Z,6.90
2019-03-05T16:58:21.948Z,6.90
2019-03-05T17:01:18.892Z,6.80
2019-03-05T17:04:10.711Z,6.80
2019-03-05T17:07:10.708Z,6.70
2019-03-05T17:10:01.487Z,6.60
2019-03-05T17:12:35.237Z,6.50
2019-03-05T17:15:06.964Z,6.60
2019-03-05T17:17:38.847Z,6.60
2019-03-05T17:20:11.491Z,6.60
2019-03-05T17:22:42.499Z,6.60
2019-03-05T17:25:15.872Z,6.60
2019-03-05T17:27:47.721Z,6.60
2019-03-05T17:30:19.895Z,6.60
2019-03-05T17:32:51.731Z,6.50
2019-03-05T17:35:23.698Z,6.40
2019-03-05T17:37:54.875Z,6.50
2019-03-05T17:40:26.204Z,6.50
2019-03-05T17:42:58.502Z,6.60
2019-03-05T17:45:30.174Z,6.60
2019-03-05T17:48:02.191Z,6.70
2019-03-05T17:50:34.126Z,6.70
2019-03-05T17:53:06.124Z,6.70
2019-03-05T17:55:38.727Z,6.70
2019-03-05T17:58:10.328Z,6.70
2019-03-05T18:00:43.526Z,6.70
2019-03-05T18:03:15.053Z,6.60
2019-03-05T18:05:46.371Z,6.60
2019-03-05T18:08:17.452Z,6.50
2019-03-05T18:10:49.151Z,6.50
2019-03-05T18:13:20.539Z,6.50
2019-03-05T18:15:52.632Z,6.60
2019-03-05T18:18:24.893Z,6.60
2019-03-05T18:20:56.547Z,6.50
2019-03-05T18:23:28.191Z,6.50
2019-03-05T18:26:00.007Z,6.50
2019-03-05T18:28:31.601Z,6.50
2019-03-05T18:31:02.722Z,6.40
2019-03-05T18:33:34.594Z,6.40
2019-03-05T18:36:06.329Z,6.30
2019-03-05T18:38:38.024Z,6.20
2019-03-05T18:41:09.991Z,6.10
2019-03-05T18:43:41.615Z,6.00
2019-03-05T18:46:13.471Z,5.90
2019-03-05T18:48:45.260Z,5.80
2019-03-05T18:51:16.309Z,5.70
2019-03-05T18:53:47.927Z,5.60
2019-03-05T18:56:19.037Z,5.40
2019-03-05T18:58:51.650Z,5.40
2019-03-05T19:01:23.187Z,5.30
2019-03-05T19:03:54.943Z,5.20
2019-03-05T19:06:26.598Z,5.10
2019-03-05T19:08:58.178Z,5.10
2019-03-05T19:11:31.062Z,5.00
2019-03-05T19:14:02.864Z,5.00
2019-03-05T19:16:34.169Z,5.00
2019-03-05T19:19:06.027Z,5.00
2019-03-05T19:21:37.503Z,5.00
2019-03-05T19:24:09.856Z,5.00
2019-03-05T19:26:41.598Z,5.00
2019-03-05T19:29:13.326Z,5.00
2019-03-05T19:31:44.961Z,4.90
2019-03-05T19:34:16.736Z,4.90
2019-03-05T19:36:48.615Z,4.90
2019-03-05T19:39:20.584Z,4.90
2019-03-05T19:41:55.976Z,4.90
2019-03-05T19:44:28.961Z,4.90
2019-03-05T19:47:00.131Z,4.90
2019-03-05T19:49:31.493Z,4.80
2019-03-05T19:52:03.152Z,4.80
2019-03-05T19:54:35.086Z,4.80
2019-03-05T19:57:06.519Z,4.80
2019-03-05T19:59:38.457Z,4.70
2019-03-05T20:02:09.801Z,4.70
2019-03-05T20:04:41.899Z,4.70
2019-03-05T20:07:13.962Z,4.70
2019-03-05T20:09:45.898Z,4.70
2019-03-05T20:12:18.776Z,4.70
2019-03-05T20:14:50.971Z,4.70
2019-03-05T20:17:22.355Z,4.70
2019-03-05T20:19:54.243Z,4.70
2019-03-05T20:22:25.792Z,4.60
2019-03-05T20:24:57.365Z,4.70
2019-03-05T20:27:29.008Z,4.70
2019-03-05T20:30:01.564Z,4.70
2019-03-05T20:32:34.446Z,4.70
2019-03-05T20:35:05.931Z,4.60
2019-03-05T20:37:38.190Z,4.60
2019-03-05T20:40:12.692Z,4.60
2019-03-05T20:42:44.992Z,4.50
2019-03-05T20:45:20.348Z,4.50
2019-03-05T20:47:51.964Z,4.50
2019-03-05T20:50:23.631Z,4.50
2019-03-05T20:52:55.390Z,4.50
2019-03-05T20:55:26.974Z,4.60
2019-03-05T20:57:58.803Z,4.60
2019-03-05T21:00:31.795Z,4.60
2019-03-05T21:03:05.219Z,4.60
2019-03-05T21:05:41.525Z,4.60
2019-03-05T21:08:13.971Z,4.60
2019-03-05T21:10:46.362Z,4.60
2019-03-05T21:13:18.053Z,4.60
2019-03-05T21:15:49.580Z,4.60
2019-03-05T21:18:20.841Z,4.60
2019-03-05T21:20:52.069Z,4.60
2019-03-05T21:23:24.260Z,4.60
2019-03-05T21:25:55.675Z,4.60
2019-03-05T21:28:26.929Z,4.60
2019-03-05T21:30:58.500Z,4.60
2019-03-05T21:33:29.475Z,4.60
2019-03-05T21:36:01.503Z,4.60
2019-03-05T21:38:34.040Z,4.60
2019-03-05T21:41:05.578Z,4.60
2019-03-05T21:43:39.034Z,4.70
2019-03-05T21:46:16.118Z,4.60
2019-03-05T21:48:47.442Z,4.60
2019-03-05T21:51:19.108Z,4.60
2019-03-05T21:53:50.619Z,4.60
2019-03-05T21:56:22.306Z,4.60
2019-03-05T21:58:54.139Z,4.60
2019-03-05T22:01:25.596Z,4.60
2019-03-05T22:03:57.342Z,4.60
2019-03-05T22:06:29.153Z,4.50
2019-03-05T22:09:01.331Z,4.50
2019-03-05T22:11:34.479Z,4.50
2019-03-05T22:14:05.779Z,4.50
2019-03-05T22:16:37.415Z,4.50
2019-03-05T22:19:09.570Z,4.50
2019-03-05T22:21:40.893Z,4.40
2019-03-05T22:24:12.750Z,4.50
2019-03-05T22:26:45.031Z,4.40
2019-03-05T22:29:17.485Z,4.40
2019-03-05T22:31:49.447Z,4.40
2019-03-05T22:34:20.976Z,4.40
2019-03-05T22:36:52.800Z,4.40
2019-03-05T22:39:24.458Z,4.40
2019-03-05T22:41:56.225Z,4.40
2019-03-05T22:44:27.901Z,4.40
2019-03-05T22:46:59.875Z,4.40
2019-03-05T22:49:31.431Z,4.40
2019-03-05T22:52:03.169Z,4.40
2019-03-05T22:54:35.007Z,4.40
2019-03-05T22:57:06.714Z,4.40
2019-03-05T22:59:38.100Z,4.40
2019-03-05T23:02:09.961Z,4.40
2019-03-05T23:04:45.009Z,4.40
2019-03-05T23:07:16.696Z,4.40
2019-03-05T23:09:53.561Z,4.40
2019-03-05T23:12:25.764Z,4.40
2019-03-05T23:14:57.595Z,4.40
2019-03-05T23:17:30.111Z,4.40
2019-03-05T23:20:02.152Z,4.50
2019-03-05T23:22:34.154Z,4.50
2019-03-05T23:25:06.252Z,4.50
2019-03-05T23:27:38.583Z,4.50
2019-03-05T23:30:12.140Z,4.50
2019-03-05T23:32:44.268Z,4.40
2019-03-05T23:35:16.410Z,4.30
2019-03-05T23:37:48.144Z,4.30
2019-03-05T23:40:20.351Z,4.40
2019-03-05T23:42:51.728Z,4.40
2019-03-05T23:45:23.863Z,4.40
2019-03-05T23:47:56.053Z,4.40
2019-03-05T23:50:27.776Z,4.40
2019-03-05T23:52:59.185Z,4.40
2019-03-05T23:55:31.080Z,4.30
2019-03-05T23:58:02.741Z,4.30
